sensor_id;sensor_type;location;lat;lon;timestamp;pressure;altitude;pressure_sealevel;temperature;humidity
6851;BME280;3464;42.728;23.296;2022-10-16T00:01:31;95907.16;;;14.56;65.94
6851;BME280;3464;42.728;23.296;2022-10-16T00:03:59;95899.56;;;14.57;65.92
6851;BME280;3464;42.728;23.296;2022-10-16T00:06:25;95912.10;;;14.29;67.00
6851;BME280;3464;42.728;23.296;2022-10-16T00:08:51;95913.86;;;14.41;66.38
6851;BME280;3464;42.728;23.296;2022-10-16T00:11:20;95915.58;;;14.51;66.30
6851;BME280;3464;42.728;23.296;2022-10-16T00:13:46;95916.82;;;14.46;66.22
6851;BME280;3464;42.728;23.296;2022-10-16T00:16:12;95912.12;;;14.35;66.81
6851;BME280;3464;42.728;23.296;2022-10-16T00:18:38;95917.20;;;14.38;66.25
6851;BME280;3464;42.728;23.296;2022-10-16T00:21:09;95920.14;;;14.32;66.08
6851;BME280;3464;42.728;23.296;2022-10-16T00:23:34;95926.02;;;14.27;66.02
6851;BME280;3464;42.728;23.296;2022-10-16T00:26:03;95925.93;;;14.17;66.54
6851;BME280;3464;42.728;23.296;2022-10-16T00:28:28;95930.40;;;13.86;67.37
6851;BME280;3464;42.728;23.296;2022-10-16T00:30:55;95930.04;;;13.97;66.81
6851;BME280;3464;42.728;23.296;2022-10-16T00:33:21;95934.25;;;13.92;66.75
6851;BME280;3464;42.728;23.296;2022-10-16T00:35:48;95937.35;;;13.57;67.34
6851;BME280;3464;42.728;23.296;2022-10-16T00:38:14;95937.57;;;13.87;66.94
6851;BME280;3464;42.728;23.296;2022-10-16T00:40:41;95931.69;;;13.87;66.67
6851;BME280;3464;42.728;23.296;2022-10-16T00:43:12;95932.86;;;13.75;67.04
6851;BME280;3464;42.728;23.296;2022-10-16T00:45:36;95927.73;;;13.66;67.00
6851;BME280;3464;42.728;23.296;2022-10-16T00:48:02;95925.20;;;13.67;67.09
6851;BME280;3464;42.728;23.296;2022-10-16T00:50:31;95921.92;;;13.77;66.74
6851;BME280;3464;42.728;23.296;2022-10-16T00:52:57;95927.33;;;13.66;66.94
6851;BME280;3464;42.728;23.296;2022-10-16T00:55:24;95926.80;;;13.54;67.44
6851;BME280;3464;42.728;23.296;2022-10-16T00:57:50;95920.08;;;13.56;67.58
6851;BME280;3464;42.728;23.296;2022-10-16T01:00:19;95927.66;;;13.55;67.13
6851;BME280;3464;42.728;23.296;2022-10-16T01:02:44;95928.38;;;13.39;67.35
6851;BME280;3464;42.728;23.296;2022-10-16T01:05:11;95924.98;;;13.39;67.33
6851;BME280;3464;42.728;23.296;2022-10-16T01:07:53;95927.97;;;13.42;67.16
6851;BME280;3464;42.728;23.296;2022-10-16T01:10:51;95938.02;;;13.35;67.50
6851;BME280;3464;42.728;23.296;2022-10-16T01:13:18;95937.59;;;13.36;67.42
6851;BME280;3464;42.728;23.296;2022-10-16T01:15:49;95940.16;;;13.40;67.15
6851;BME280;3464;42.728;23.296;2022-10-16T01:18:16;95932.24;;;13.51;67.26
6851;BME280;3464;42.728;23.296;2022-10-16T01:20:45;95927.30;;;13.66;66.79
6851;BME280;3464;42.728;23.296;2022-10-16T01:23:31;95924.96;;;13.93;66.21
6851;BME280;3464;42.728;23.296;2022-10-16T01:26:17;95920.70;;;13.85;66.25
6851;BME280;3464;42.728;23.296;2022-10-16T01:28:49;95923.56;;;13.73;66.59
6851;BME280;3464;42.728;23.296;2022-10-16T01:31:14;95922.55;;;13.51;66.61
6851;BME280;3464;42.728;23.296;2022-10-16T01:33:42;95926.81;;;13.58;67.05
6851;BME280;3464;42.728;23.296;2022-10-16T01:36:13;95928.61;;;13.71;67.02
6851;BME280;3464;42.728;23.296;2022-10-16T01:38:39;95925.16;;;13.60;67.01
6851;BME280;3464;42.728;23.296;2022-10-16T01:41:26;95931.09;;;13.62;67.98
6851;BME280;3464;42.728;23.296;2022-10-16T01:44:14;95933.26;;;13.71;67.52
6851;BME280;3464;42.728;23.296;2022-10-16T01:46:45;95934.02;;;13.59;67.75
6851;BME280;3464;42.728;23.296;2022-10-16T01:49:10;95935.68;;;13.57;67.95
6851;BME280;3464;42.728;23.296;2022-10-16T01:51:37;95939.95;;;13.63;67.74
6851;BME280;3464;42.728;23.296;2022-10-16T01:54:04;95952.09;;;13.51;68.28
6851;BME280;3464;42.728;23.296;2022-10-16T01:56:30;95944.13;;;13.60;68.33
6851;BME280;3464;42.728;23.296;2022-10-16T01:59:06;95945.49;;;13.74;68.05
6851;BME280;3464;42.728;23.296;2022-10-16T02:01:33;95949.14;;;13.54;68.24
6851;BME280;3464;42.728;23.296;2022-10-16T02:04:01;95950.47;;;13.59;68.40
6851;BME280;3464;42.728;23.296;2022-10-16T02:06:26;95947.84;;;13.51;68.95
6851;BME280;3464;42.728;23.296;2022-10-16T02:08:53;95957.13;;;13.53;68.58
6851;BME280;3464;42.728;23.296;2022-10-16T02:11:19;95955.70;;;13.32;69.36
6851;BME280;3464;42.728;23.296;2022-10-16T02:13:50;95957.05;;;13.41;69.11
6851;BME280;3464;42.728;23.296;2022-10-16T02:16:15;95960.06;;;13.04;69.77
6851;BME280;3464;42.728;23.296;2022-10-16T02:18:42;95963.27;;;13.29;69.69
6851;BME280;3464;42.728;23.296;2022-10-16T02:21:26;95969.66;;;12.97;70.50
6851;BME280;3464;42.728;23.296;2022-10-16T02:23:55;95961.98;;;13.30;69.49
6851;BME280;3464;42.728;23.296;2022-10-16T02:26:25;95970.13;;;13.00;70.08
6851;BME280;3464;42.728;23.296;2022-10-16T02:28:51;95969.67;;;13.38;68.41
6851;BME280;3464;42.728;23.296;2022-10-16T02:31:18;95978.05;;;13.34;68.05
6851;BME280;3464;42.728;23.296;2022-10-16T02:33:43;95981.84;;;12.96;69.84
6851;BME280;3464;42.728;23.296;2022-10-16T02:36:10;95973.57;;;13.07;69.60
6851;BME280;3464;42.728;23.296;2022-10-16T02:38:37;95975.36;;;13.16;69.11
6851;BME280;3464;42.728;23.296;2022-10-16T02:41:04;95971.89;;;13.08;68.88
6851;BME280;3464;42.728;23.296;2022-10-16T02:43:31;95967.34;;;12.79;69.71
6851;BME280;3464;42.728;23.296;2022-10-16T02:45:58;95976.16;;;13.11;68.97
6851;BME280;3464;42.728;23.296;2022-10-16T02:48:25;95982.58;;;12.86;69.78
6851;BME280;3464;42.728;23.296;2022-10-16T02:50:52;95982.13;;;12.84;69.51
6851;BME280;3464;42.728;23.296;2022-10-16T02:53:19;95981.16;;;13.07;68.55
6851;BME280;3464;42.728;23.296;2022-10-16T02:55:46;95994.19;;;13.04;68.17
6851;BME280;3464;42.728;23.296;2022-10-16T02:58:12;95996.46;;;12.84;68.91
6851;BME280;3464;42.728;23.296;2022-10-16T03:00:39;95990.09;;;12.79;69.11
6851;BME280;3464;42.728;23.296;2022-10-16T03:03:07;95989.67;;;12.80;68.87
6851;BME280;3464;42.728;23.296;2022-10-16T03:05:33;95997.72;;;12.49;68.89
6851;BME280;3464;42.728;23.296;2022-10-16T03:08:01;95999.86;;;12.54;68.58
6851;BME280;3464;42.728;23.296;2022-10-16T03:10:28;95989.08;;;12.67;67.78
6851;BME280;3464;42.728;23.296;2022-10-16T03:12:56;95999.02;;;12.53;67.89
6851;BME280;3464;42.728;23.296;2022-10-16T03:15:23;96003.55;;;12.43;68.04
6851;BME280;3464;42.728;23.296;2022-10-16T03:17:49;96005.70;;;12.48;68.43
6851;BME280;3464;42.728;23.296;2022-10-16T03:20:15;95997.29;;;12.49;67.54
6851;BME280;3464;42.728;23.296;2022-10-16T03:22:42;96000.16;;;12.43;67.49
6851;BME280;3464;42.728;23.296;2022-10-16T03:25:09;95998.79;;;12.36;67.54
6851;BME280;3464;42.728;23.296;2022-10-16T03:27:35;96009.59;;;12.26;67.97
6851;BME280;3464;42.728;23.296;2022-10-16T03:30:02;96008.31;;;12.24;67.89
6851;BME280;3464;42.728;23.296;2022-10-16T03:32:28;96005.63;;;12.14;67.92
6851;BME280;3464;42.728;23.296;2022-10-16T03:34:55;96007.84;;;12.20;67.94
6851;BME280;3464;42.728;23.296;2022-10-16T03:37:22;96002.30;;;12.16;67.69
6851;BME280;3464;42.728;23.296;2022-10-16T03:39:48;96001.92;;;12.18;67.45
6851;BME280;3464;42.728;23.296;2022-10-16T03:42:15;96006.54;;;12.17;67.30
6851;BME280;3464;42.728;23.296;2022-10-16T03:44:42;96008.63;;;12.17;67.47
6851;BME280;3464;42.728;23.296;2022-10-16T03:47:08;95999.37;;;12.16;67.68
6851;BME280;3464;42.728;23.296;2022-10-16T03:49:35;95999.39;;;12.18;67.86
6851;BME280;3464;42.728;23.296;2022-10-16T03:52:01;95993.76;;;12.07;68.24
6851;BME280;3464;42.728;23.296;2022-10-16T03:54:28;96001.42;;;12.12;68.23
6851;BME280;3464;42.728;23.296;2022-10-16T03:56:54;95997.48;;;12.02;68.66
6851;BME280;3464;42.728;23.296;2022-10-16T03:59:21;96001.47;;;12.16;68.12
6851;BME280;3464;42.728;23.296;2022-10-16T04:01:47;95997.63;;;12.13;68.23
6851;BME280;3464;42.728;23.296;2022-10-16T04:04:14;95999.33;;;12.13;68.53
6851;BME280;3464;42.728;23.296;2022-10-16T04:06:40;96007.86;;;12.22;68.58
6851;BME280;3464;42.728;23.296;2022-10-16T04:09:07;96001.94;;;12.19;68.62
6851;BME280;3464;42.728;23.296;2022-10-16T04:11:34;96005.42;;;12.29;68.13
6851;BME280;3464;42.728;23.296;2022-10-16T04:14:00;96005.77;;;12.23;67.87
6851;BME280;3464;42.728;23.296;2022-10-16T04:16:27;96006.20;;;12.23;68.13
6851;BME280;3464;42.728;23.296;2022-10-16T04:18:54;95999.02;;;12.20;68.74
6851;BME280;3464;42.728;23.296;2022-10-16T04:21:21;96000.77;;;12.25;68.33
6851;BME280;3464;42.728;23.296;2022-10-16T04:23:47;96004.50;;;12.23;68.50
6851;BME280;3464;42.728;23.296;2022-10-16T04:26:14;96005.89;;;12.32;67.75
6851;BME280;3464;42.728;23.296;2022-10-16T04:28:40;96010.41;;;12.24;68.07
6851;BME280;3464;42.728;23.296;2022-10-16T04:31:07;96011.11;;;12.14;68.21
6851;BME280;3464;42.728;23.296;2022-10-16T04:33:33;96009.26;;;12.03;68.70
6851;BME280;3464;42.728;23.296;2022-10-16T04:36:01;96013.86;;;12.01;68.84
6851;BME280;3464;42.728;23.296;2022-10-16T04:38:27;96016.70;;;12.22;68.54
6851;BME280;3464;42.728;23.296;2022-10-16T04:40:53;96019.55;;;12.45;67.62
6851;BME280;3464;42.728;23.296;2022-10-16T04:43:20;96021.20;;;12.45;67.68
6851;BME280;3464;42.728;23.296;2022-10-16T04:45:46;96017.78;;;12.41;68.25
6851;BME280;3464;42.728;23.296;2022-10-16T04:48:13;96019.44;;;12.37;67.89
6851;BME280;3464;42.728;23.296;2022-10-16T04:50:39;96032.39;;;12.62;67.36
6851;BME280;3464;42.728;23.296;2022-10-16T04:53:06;96031.64;;;12.69;67.33
6851;BME280;3464;42.728;23.296;2022-10-16T04:55:32;96040.42;;;12.64;67.39
6851;BME280;3464;42.728;23.296;2022-10-16T04:57:59;96039.17;;;12.66;68.57
6851;BME280;3464;42.728;23.296;2022-10-16T05:00:25;96043.14;;;12.80;67.76
6851;BME280;3464;42.728;23.296;2022-10-16T05:02:52;96040.92;;;13.01;67.17
6851;BME280;3464;42.728;23.296;2022-10-16T05:05:18;96035.58;;;13.15;66.71
6851;BME280;3464;42.728;23.296;2022-10-16T05:07:46;96040.65;;;13.58;65.86
6851;BME280;3464;42.728;23.296;2022-10-16T05:10:13;96034.80;;;14.85;64.59
6851;BME280;3464;42.728;23.296;2022-10-16T05:12:40;96034.26;;;16.07;61.37
6851;BME280;3464;42.728;23.296;2022-10-16T05:15:07;96045.66;;;16.55;59.19
6851;BME280;3464;42.728;23.296;2022-10-16T05:17:33;96038.59;;;17.29;57.80
6851;BME280;3464;42.728;23.296;2022-10-16T05:20:00;96032.47;;;17.68;56.57
6851;BME280;3464;42.728;23.296;2022-10-16T05:22:26;96037.41;;;18.42;56.04
6851;BME280;3464;42.728;23.296;2022-10-16T05:24:53;96035.70;;;18.83;54.95
6851;BME280;3464;42.728;23.296;2022-10-16T05:27:19;96031.86;;;19.20;52.57
6851;BME280;3464;42.728;23.296;2022-10-16T05:29:46;96040.34;;;19.21;53.52
6851;BME280;3464;42.728;23.296;2022-10-16T05:32:13;96044.27;;;19.78;52.79
6851;BME280;3464;42.728;23.296;2022-10-16T05:34:39;96048.30;;;20.47;50.77
6851;BME280;3464;42.728;23.296;2022-10-16T05:37:06;96048.94;;;20.59;49.28
6851;BME280;3464;42.728;23.296;2022-10-16T05:39:32;96046.20;;;19.91;51.84
6851;BME280;3464;42.728;23.296;2022-10-16T05:41:59;96048.62;;;20.01;48.88
6851;BME280;3464;42.728;23.296;2022-10-16T05:44:25;96049.52;;;20.74;49.38
6851;BME280;3464;42.728;23.296;2022-10-16T05:46:52;96053.34;;;20.75;48.81
6851;BME280;3464;42.728;23.296;2022-10-16T05:49:18;96058.52;;;21.18;47.73
6851;BME280;3464;42.728;23.296;2022-10-16T05:51:45;96055.27;;;20.86;48.09
6851;BME280;3464;42.728;23.296;2022-10-16T05:54:11;96058.52;;;21.39;46.51
6851;BME280;3464;42.728;23.296;2022-10-16T05:56:39;96061.86;;;22.19;44.57
6851;BME280;3464;42.728;23.296;2022-10-16T05:59:06;96059.03;;;22.81;43.71
6851;BME280;3464;42.728;23.296;2022-10-16T06:01:32;96075.10;;;22.37;44.49
6851;BME280;3464;42.728;23.296;2022-10-16T06:03:59;96069.23;;;22.33;44.78
6851;BME280;3464;42.728;23.296;2022-10-16T06:06:26;96072.24;;;21.76;45.33
6851;BME280;3464;42.728;23.296;2022-10-16T06:08:52;96081.23;;;22.49;43.46
6851;BME280;3464;42.728;23.296;2022-10-16T06:11:20;96082.64;;;22.61;42.84
6851;BME280;3464;42.728;23.296;2022-10-16T06:13:49;96096.52;;;20.70;45.16
6851;BME280;3464;42.728;23.296;2022-10-16T06:16:12;96090.31;;;19.44;47.55
6851;BME280;3464;42.728;23.296;2022-10-16T06:18:39;96098.42;;;19.43;48.09
6851;BME280;3464;42.728;23.296;2022-10-16T06:21:09;96100.35;;;18.83;49.08
6851;BME280;3464;42.728;23.296;2022-10-16T06:23:35;96100.74;;;19.26;48.28
6851;BME280;3464;42.728;23.296;2022-10-16T06:26:07;96101.30;;;18.72;48.90
6851;BME280;3464;42.728;23.296;2022-10-16T06:28:33;96108.03;;;18.26;50.77
6851;BME280;3464;42.728;23.296;2022-10-16T06:31:01;96107.17;;;18.29;50.50
6851;BME280;3464;42.728;23.296;2022-10-16T06:33:27;96105.96;;;18.20;50.75
6851;BME280;3464;42.728;23.296;2022-10-16T06:35:59;96104.66;;;18.26;51.11
6851;BME280;3464;42.728;23.296;2022-10-16T06:38:20;96112.29;;;18.26;51.05
6851;BME280;3464;42.728;23.296;2022-10-16T06:40:47;96111.24;;;18.96;50.19
6851;BME280;3464;42.728;23.296;2022-10-16T06:43:14;96110.62;;;19.16;49.46
6851;BME280;3464;42.728;23.296;2022-10-16T06:45:41;96124.23;;;18.18;50.91
6851;BME280;3464;42.728;23.296;2022-10-16T06:48:08;96125.12;;;18.15;51.26
6851;BME280;3464;42.728;23.296;2022-10-16T06:50:35;96133.23;;;18.09;51.99
6851;BME280;3464;42.728;23.296;2022-10-16T06:53:03;96134.25;;;18.47;51.81
6851;BME280;3464;42.728;23.296;2022-10-16T06:55:30;96129.66;;;18.37;51.40
6851;BME280;3464;42.728;23.296;2022-10-16T06:57:57;96132.97;;;18.48;50.96
6851;BME280;3464;42.728;23.296;2022-10-16T07:00:23;96136.58;;;18.14;51.46
6851;BME280;3464;42.728;23.296;2022-10-16T07:02:50;96141.39;;;17.92;51.98
6851;BME280;3464;42.728;23.296;2022-10-16T07:05:17;96138.27;;;18.16;51.59
6851;BME280;3464;42.728;23.296;2022-10-16T07:07:43;96143.73;;;18.25;51.93
6851;BME280;3464;42.728;23.296;2022-10-16T07:10:10;96143.42;;;18.09;51.99
6851;BME280;3464;42.728;23.296;2022-10-16T07:12:37;96143.67;;;18.34;51.87
6851;BME280;3464;42.728;23.296;2022-10-16T07:15:04;96145.31;;;18.44;51.64
6851;BME280;3464;42.728;23.296;2022-10-16T07:17:30;96147.96;;;18.28;52.38
6851;BME280;3464;42.728;23.296;2022-10-16T07:19:58;96148.43;;;18.22;51.73
6851;BME280;3464;42.728;23.296;2022-10-16T07:22:25;96145.44;;;18.23;51.86
6851;BME280;3464;42.728;23.296;2022-10-16T07:24:52;96147.98;;;18.23;52.11
6851;BME280;3464;42.728;23.296;2022-10-16T07:27:18;96139.48;;;18.27;52.17
6851;BME280;3464;42.728;23.296;2022-10-16T07:29:45;96150.46;;;18.40;52.04
6851;BME280;3464;42.728;23.296;2022-10-16T07:32:11;96152.77;;;18.07;52.40
6851;BME280;3464;42.728;23.296;2022-10-16T07:34:39;96147.25;;;18.07;52.77
6851;BME280;3464;42.728;23.296;2022-10-16T07:37:06;96146.88;;;17.98;52.83
6851;BME280;3464;42.728;23.296;2022-10-16T07:39:33;96150.57;;;18.21;52.59
6851;BME280;3464;42.728;23.296;2022-10-16T07:41:59;96148.60;;;17.96;53.10
6851;BME280;3464;42.728;23.296;2022-10-16T07:44:26;96146.48;;;18.59;52.18
6851;BME280;3464;42.728;23.296;2022-10-16T07:46:52;96143.83;;;18.71;51.37
6851;BME280;3464;42.728;23.296;2022-10-16T07:49:19;96148.92;;;18.10;53.21
6851;BME280;3464;42.728;23.296;2022-10-16T07:51:45;96150.91;;;18.37;52.32
6851;BME280;3464;42.728;23.296;2022-10-16T07:54:12;96146.48;;;18.56;52.25
6851;BME280;3464;42.728;23.296;2022-10-16T07:56:38;96147.17;;;18.76;52.15
6851;BME280;3464;42.728;23.296;2022-10-16T07:59:05;96151.41;;;18.76;51.67
6851;BME280;3464;42.728;23.296;2022-10-16T08:01:32;96157.95;;;18.59;52.15
6851;BME280;3464;42.728;23.296;2022-10-16T08:03:58;96153.02;;;18.86;51.89
6851;BME280;3464;42.728;23.296;2022-10-16T08:06:25;96152.00;;;19.04;51.31
6851;BME280;3464;42.728;23.296;2022-10-16T08:08:51;96153.70;;;19.06;51.68
6851;BME280;3464;42.728;23.296;2022-10-16T08:11:18;96149.63;;;19.31;51.29
6851;BME280;3464;42.728;23.296;2022-10-16T08:13:45;96152.37;;;19.49;50.78
6851;BME280;3464;42.728;23.296;2022-10-16T08:16:12;96148.25;;;19.73;50.78
6851;BME280;3464;42.728;23.296;2022-10-16T08:18:39;96145.77;;;19.66;50.40
6851;BME280;3464;42.728;23.296;2022-10-16T08:21:05;96144.22;;;19.56;51.24
6851;BME280;3464;42.728;23.296;2022-10-16T08:23:31;96144.84;;;19.37;51.24
6851;BME280;3464;42.728;23.296;2022-10-16T08:26:01;96139.43;;;19.29;51.51
6851;BME280;3464;42.728;23.296;2022-10-16T08:28:24;96145.67;;;19.41;51.46
6851;BME280;3464;42.728;23.296;2022-10-16T08:30:51;96142.22;;;19.45;51.28
6851;BME280;3464;42.728;23.296;2022-10-16T08:33:17;96145.80;;;19.66;51.13
6851;BME280;3464;42.728;23.296;2022-10-16T08:35:59;96132.73;;;20.18;50.13
6851;BME280;3464;42.728;23.296;2022-10-16T08:38:25;96138.25;;;20.20;50.80
6851;BME280;3464;42.728;23.296;2022-10-16T08:40:52;96143.51;;;20.08;49.74
6851;BME280;3464;42.728;23.296;2022-10-16T08:46:15;96137.55;;;20.08;49.34
6851;BME280;3464;42.728;23.296;2022-10-16T08:48:46;96138.30;;;20.17;49.06
6851;BME280;3464;42.728;23.296;2022-10-16T08:51:15;96143.67;;;19.66;48.74
6851;BME280;3464;42.728;23.296;2022-10-16T08:53:48;96137.95;;;20.13;48.45
6851;BME280;3464;42.728;23.296;2022-10-16T08:56:17;96144.45;;;20.33;47.83
6851;BME280;3464;42.728;23.296;2022-10-16T08:58:48;96141.61;;;20.50;47.31
6851;BME280;3464;42.728;23.296;2022-10-16T09:01:11;96144.33;;;20.13;47.58
6851;BME280;3464;42.728;23.296;2022-10-16T09:03:45;96142.84;;;20.53;46.95
6851;BME280;3464;42.728;23.296;2022-10-16T09:06:26;96142.39;;;20.29;47.54
6851;BME280;3464;42.728;23.296;2022-10-16T09:09:10;96142.42;;;20.54;46.70
6851;BME280;3464;42.728;23.296;2022-10-16T09:12:24;96140.24;;;20.81;45.38
6851;BME280;3464;42.728;23.296;2022-10-16T09:17:25;96141.84;;;20.63;45.34
6851;BME280;3464;42.728;23.296;2022-10-16T09:19:56;96134.97;;;21.15;45.10
6851;BME280;3464;42.728;23.296;2022-10-16T09:22:20;96138.98;;;21.29;43.96
6851;BME280;3464;42.728;23.296;2022-10-16T09:24:46;96129.05;;;21.35;43.72
6851;BME280;3464;42.728;23.296;2022-10-16T09:27:13;96144.12;;;21.05;43.88
6851;BME280;3464;42.728;23.296;2022-10-16T09:29:40;96140.09;;;21.16;43.77
6851;BME280;3464;42.728;23.296;2022-10-16T09:32:10;96141.11;;;21.07;43.93
6851;BME280;3464;42.728;23.296;2022-10-16T09:34:36;96143.42;;;20.95;43.67
6851;BME280;3464;42.728;23.296;2022-10-16T09:37:18;96138.78;;;20.92;43.63
6851;BME280;3464;42.728;23.296;2022-10-16T09:39:54;96138.95;;;21.30;43.23
6851;BME280;3464;42.728;23.296;2022-10-16T09:42:37;96140.56;;;21.56;43.16
6851;BME280;3464;42.728;23.296;2022-10-16T09:45:04;96137.58;;;21.12;44.16
6851;BME280;3464;42.728;23.296;2022-10-16T09:47:31;96132.35;;;22.21;43.02
6851;BME280;3464;42.728;23.296;2022-10-16T09:49:59;96133.50;;;21.88;43.24
6851;BME280;3464;42.728;23.296;2022-10-16T09:52:25;96129.98;;;21.92;42.99
6851;BME280;3464;42.728;23.296;2022-10-16T09:54:52;96118.12;;;22.08;42.56
6851;BME280;3464;42.728;23.296;2022-10-16T09:57:18;96117.45;;;22.18;43.15
6851;BME280;3464;42.728;23.296;2022-10-16T09:59:46;96118.39;;;21.96;42.30
6851;BME280;3464;42.728;23.296;2022-10-16T10:02:12;96120.03;;;21.58;42.22
6851;BME280;3464;42.728;23.296;2022-10-16T10:04:45;96118.97;;;21.48;42.97
6851;BME280;3464;42.728;23.296;2022-10-16T10:07:15;96114.91;;;22.00;42.56
6851;BME280;3464;42.728;23.296;2022-10-16T10:09:37;96115.20;;;21.86;42.14
6851;BME280;3464;42.728;23.296;2022-10-16T10:12:04;96107.74;;;21.53;42.18
6851;BME280;3464;42.728;23.296;2022-10-16T10:14:37;96107.68;;;21.56;42.88
6851;BME280;3464;42.728;23.296;2022-10-16T10:17:17;96105.57;;;21.95;41.83
6851;BME280;3464;42.728;23.296;2022-10-16T10:19:55;96106.67;;;21.63;42.77
6851;BME280;3464;42.728;23.296;2022-10-16T10:22:45;96108.56;;;21.96;42.34
6851;BME280;3464;42.728;23.296;2022-10-16T10:25:32;96098.25;;;22.17;42.00
6851;BME280;3464;42.728;23.296;2022-10-16T10:28:28;96088.78;;;22.20;41.69
6851;BME280;3464;42.728;23.296;2022-10-16T10:31:32;96089.18;;;22.90;40.97
6851;BME280;3464;42.728;23.296;2022-10-16T10:33:44;96089.14;;;22.40;41.54
6851;BME280;3464;42.728;23.296;2022-10-16T10:36:14;96084.41;;;22.24;41.26
6851;BME280;3464;42.728;23.296;2022-10-16T10:41:24;96079.81;;;22.37;41.16
6851;BME280;3464;42.728;23.296;2022-10-16T10:46:32;96076.02;;;22.53;40.44
6851;BME280;3464;42.728;23.296;2022-10-16T10:49:19;96066.91;;;22.22;40.57
6851;BME280;3464;42.728;23.296;2022-10-16T10:51:56;96065.99;;;22.60;40.43
6851;BME280;3464;42.728;23.296;2022-10-16T10:54:26;96062.56;;;22.93;40.46
6851;BME280;3464;42.728;23.296;2022-10-16T11:02:05;96066.16;;;22.70;39.78
6851;BME280;3464;42.728;23.296;2022-10-16T11:07:20;96056.86;;;22.82;40.03
6851;BME280;3464;42.728;23.296;2022-10-16T11:09:48;96059.81;;;22.84;40.87
6851;BME280;3464;42.728;23.296;2022-10-16T11:12:19;96060.91;;;22.75;40.88
6851;BME280;3464;42.728;23.296;2022-10-16T11:14:50;96052.53;;;22.84;40.82
6851;BME280;3464;42.728;23.296;2022-10-16T11:17:19;96057.32;;;22.65;40.44
6851;BME280;3464;42.728;23.296;2022-10-16T11:19:48;96059.38;;;22.52;40.95
6851;BME280;3464;42.728;23.296;2022-10-16T11:22:19;96050.20;;;22.75;40.47
6851;BME280;3464;42.728;23.296;2022-10-16T11:24:51;96043.47;;;23.33;39.29
6851;BME280;3464;42.728;23.296;2022-10-16T11:27:17;96046.03;;;23.03;39.92
6851;BME280;3464;42.728;23.296;2022-10-16T11:29:46;96045.65;;;22.86;39.32
6851;BME280;3464;42.728;23.296;2022-10-16T11:34:55;96042.53;;;23.21;39.68
6851;BME280;3464;42.728;23.296;2022-10-16T11:37:21;96041.06;;;23.12;39.88
6851;BME280;3464;42.728;23.296;2022-10-16T11:39:47;96041.03;;;23.13;39.13
6851;BME280;3464;42.728;23.296;2022-10-16T11:42:16;96042.91;;;23.22;39.29
6851;BME280;3464;42.728;23.296;2022-10-16T11:44:52;96041.75;;;23.34;38.58
6851;BME280;3464;42.728;23.296;2022-10-16T11:47:56;96042.95;;;23.37;37.60
6851;BME280;3464;42.728;23.296;2022-10-16T11:50:27;96037.77;;;23.24;38.19
6851;BME280;3464;42.728;23.296;2022-10-16T11:55:34;96047.39;;;23.00;39.72
6851;BME280;3464;42.728;23.296;2022-10-16T11:58:07;96039.31;;;23.29;38.89
6851;BME280;3464;42.728;23.296;2022-10-16T12:00:40;96036.87;;;23.54;38.65
6851;BME280;3464;42.728;23.296;2022-10-16T12:03:17;96033.52;;;23.66;38.65
6851;BME280;3464;42.728;23.296;2022-10-16T12:08:34;96040.42;;;23.50;38.17
6851;BME280;3464;42.728;23.296;2022-10-16T12:11:08;96040.77;;;23.24;38.92
6851;BME280;3464;42.728;23.296;2022-10-16T12:13:35;96037.63;;;22.98;39.00
6851;BME280;3464;42.728;23.296;2022-10-16T12:16:20;96030.02;;;23.39;38.61
6851;BME280;3464;42.728;23.296;2022-10-16T12:18:35;96037.08;;;23.33;38.06
6851;BME280;3464;42.728;23.296;2022-10-16T12:21:01;96033.19;;;23.34;37.86
6851;BME280;3464;42.728;23.296;2022-10-16T12:23:31;96035.77;;;23.77;37.31
6851;BME280;3464;42.728;23.296;2022-10-16T12:25:58;96030.58;;;23.78;37.49
6851;BME280;3464;42.728;23.296;2022-10-16T12:28:27;96034.80;;;23.52;37.63
6851;BME280;3464;42.728;23.296;2022-10-16T12:30:53;96031.86;;;23.78;37.05
6851;BME280;3464;42.728;23.296;2022-10-16T12:33:24;96032.84;;;23.87;37.16
6851;BME280;3464;42.728;23.296;2022-10-16T12:35:50;96042.12;;;23.64;37.74
6851;BME280;3464;42.728;23.296;2022-10-16T12:38:19;96033.91;;;23.53;37.93
6851;BME280;3464;42.728;23.296;2022-10-16T12:40:45;96031.23;;;23.70;37.90
6851;BME280;3464;42.728;23.296;2022-10-16T12:43:24;96038.19;;;23.67;37.90
6851;BME280;3464;42.728;23.296;2022-10-16T12:45:39;96038.31;;;23.62;37.57
6851;BME280;3464;42.728;23.296;2022-10-16T12:48:18;96034.90;;;23.48;37.44
6851;BME280;3464;42.728;23.296;2022-10-16T12:50:33;96032.79;;;23.61;37.88
6851;BME280;3464;42.728;23.296;2022-10-16T12:53:00;96032.36;;;23.62;38.09
6851;BME280;3464;42.728;23.296;2022-10-16T12:55:26;96040.20;;;23.43;38.37
6851;BME280;3464;42.728;23.296;2022-10-16T12:58:18;96041.40;;;23.60;37.57
6851;BME280;3464;42.728;23.296;2022-10-16T13:00:50;96044.94;;;23.71;37.17
6851;BME280;3464;42.728;23.296;2022-10-16T13:06:30;96040.81;;;23.79;33.43
6851;BME280;3464;42.728;23.296;2022-10-16T13:10:00;96039.73;;;23.59;33.52
6851;BME280;3464;42.728;23.296;2022-10-16T13:17:14;96042.35;;;23.43;34.29
6851;BME280;3464;42.728;23.296;2022-10-16T13:22:45;96041.93;;;24.13;32.53
6851;BME280;3464;42.728;23.296;2022-10-16T13:27:59;96049.88;;;24.05;33.63
6851;BME280;3464;42.728;23.296;2022-10-16T13:30:27;96048.58;;;23.78;33.33
6851;BME280;3464;42.728;23.296;2022-10-16T13:32:57;96048.73;;;24.02;33.25
6851;BME280;3464;42.728;23.296;2022-10-16T13:35:23;96043.77;;;23.96;33.58
6851;BME280;3464;42.728;23.296;2022-10-16T13:37:48;96051.97;;;24.07;33.82
6851;BME280;3464;42.728;23.296;2022-10-16T13:40:20;96048.30;;;23.45;33.56
6851;BME280;3464;42.728;23.296;2022-10-16T13:42:46;96053.78;;;23.62;33.47
6851;BME280;3464;42.728;23.296;2022-10-16T13:45:18;96054.43;;;23.40;33.66
6851;BME280;3464;42.728;23.296;2022-10-16T13:47:44;96060.89;;;23.53;33.40
6851;BME280;3464;42.728;23.296;2022-10-16T13:50:12;96062.39;;;23.15;33.42
6851;BME280;3464;42.728;23.296;2022-10-16T13:52:38;96054.78;;;22.96;33.91
6851;BME280;3464;42.728;23.296;2022-10-16T13:55:10;96053.48;;;23.26;33.70
6851;BME280;3464;42.728;23.296;2022-10-16T13:57:31;96059.35;;;23.33;33.55
6851;BME280;3464;42.728;23.296;2022-10-16T13:59:58;96060.37;;;23.27;33.40